createdAt,value
2022-12-09T00:00:41.501Z,4.80
2022-12-09T00:01:41.485Z,4.60
2022-12-09T00:02:41.673Z,4.00
2022-12-09T00:03:41.931Z,4.20
2022-12-09T00:04:41.530Z,4.30
2022-12-09T00:05:41.418Z,4.70
2022-12-09T00:06:41.419Z,4.30
2022-12-09T00:07:41.466Z,3.80
2022-12-09T00:08:41.670Z,4.10
2022-12-09T00:09:41.378Z,4.80
2022-12-09T00:10:41.482Z,4.20
2022-12-09T00:11:41.593Z,3.70
2022-12-09T00:12:41.583Z,4.30
2022-12-09T00:13:41.342Z,3.90
2022-12-09T00:14:41.588Z,4.20
2022-12-09T00:15:41.389Z,4.40
2022-12-09T00:16:41.614Z,4.20
2022-12-09T00:17:41.386Z,4.50
2022-12-09T00:18:41.346Z,4.30
2022-12-09T00:19:41.303Z,4.20
2022-12-09T00:20:41.519Z,3.80
2022-12-09T00:21:41.358Z,4.10
2022-12-09T00:22:41.321Z,4.00
2022-12-09T00:23:41.251Z,4.30
2022-12-09T00:24:41.499Z,4.10
2022-12-09T00:25:41.253Z,4.10
2022-12-09T00:26:41.352Z,4.00
2022-12-09T00:27:41.213Z,4.10
2022-12-09T00:28:41.451Z,3.80
2022-12-09T00:29:41.214Z,3.40
2022-12-09T00:30:41.270Z,3.90
2022-12-09T00:31:41.331Z,4.10
2022-12-09T00:32:41.433Z,4.40
2022-12-09T00:33:41.341Z,3.70
2022-12-09T00:34:41.153Z,3.60
2022-12-09T00:35:41.259Z,3.90
2022-12-09T00:36:41.165Z,3.70
2022-12-09T00:37:41.152Z,3.60
2022-12-09T00:38:41.367Z,4.00
2022-12-09T00:39:41.162Z,3.50
2022-12-09T00:40:41.331Z,4.10
2022-12-09T00:41:41.087Z,3.90
2022-12-09T00:42:41.334Z,3.60
2022-12-09T00:43:41.255Z,4.40
2022-12-09T00:44:41.055Z,4.20
2022-12-09T00:45:41.050Z,4.20
2022-12-09T00:46:41.213Z,4.20
2022-12-09T00:47:41.086Z,4.70
2022-12-09T00:48:41.229Z,3.50
2022-12-09T00:49:41.137Z,3.90
2022-12-09T00:50:41.235Z,4.20
2022-12-09T00:51:41.219Z,4.50
2022-12-09T00:52:40.995Z,4.00
2022-12-09T00:53:41.219Z,4.30
2022-12-09T00:54:41.124Z,4.30
2022-12-09T00:55:41.014Z,4.50
2022-12-09T00:56:41.003Z,4.20
2022-12-09T00:57:41.094Z,4.60
2022-12-09T00:58:40.945Z,4.80
2022-12-09T00:59:40.940Z,4.00
2022-12-09T01:00:41.001Z,4.90
2022-12-09T01:01:41.281Z,4.10
2022-12-09T01:02:41.291Z,4.60
2022-12-09T01:03:41.008Z,4.40
2022-12-09T01:04:41.130Z,4.50
2022-12-09T01:05:40.911Z,4.50
2022-12-09T01:06:40.881Z,4.80
2022-12-09T01:07:40.925Z,4.70
2022-12-09T01:08:42.874Z,5.00
2022-12-09T01:09:40.879Z,4.50
2022-12-09T01:10:40.815Z,4.50
2022-12-09T01:11:41.108Z,4.60
2022-12-09T01:12:40.831Z,4.50
2022-12-09T01:13:40.810Z,4.40
2022-12-09T01:14:40.851Z,5.00
2022-12-09T01:15:40.978Z,4.60
2022-12-09T01:16:41.065Z,4.70
2022-12-09T01:17:40.949Z,4.50
2022-12-09T01:18:40.762Z,4.50
2022-12-09T01:19:40.908Z,4.10
2022-12-09T01:20:40.948Z,4.20
2022-12-09T01:21:40.896Z,4.10
2022-12-09T01:22:40.821Z,4.90
2022-12-09T01:23:40.699Z,4.90
2022-12-09T01:24:40.712Z,4.80
2022-12-09T01:25:40.728Z,4.60
2022-12-09T01:26:40.892Z,5.00
2022-12-09T01:27:40.669Z,4.90
2022-12-09T01:28:41.005Z,4.40
2022-12-09T01:29:40.653Z,3.90
2022-12-09T01:30:40.695Z,4.80
2022-12-09T01:31:40.918Z,4.30
2022-12-09T01:32:40.830Z,4.40
2022-12-09T01:33:40.889Z,5.20
2022-12-09T01:34:40.957Z,4.80
2022-12-09T01:35:40.785Z,4.40
2022-12-09T01:36:40.793Z,4.30
2022-12-09T01:37:40.948Z,5.60
2022-12-09T01:38:40.728Z,4.30
2022-12-09T01:39:40.554Z,4.90
2022-12-09T01:40:40.769Z,5.60
2022-12-09T01:41:40.540Z,4.40
2022-12-09T01:42:40.533Z,4.70
2022-12-09T01:43:40.525Z,4.70
2022-12-09T01:44:40.532Z,4.70
2022-12-09T01:45:40.777Z,4.00
2022-12-09T01:46:40.583Z,5.10
2022-12-09T01:47:40.637Z,4.20
2022-12-09T01:48:40.551Z,5.00
2022-12-09T01:49:40.725Z,4.30
2022-12-09T01:50:40.453Z,4.50
2022-12-09T01:51:40.698Z,4.40
2022-12-09T01:52:40.427Z,4.90
2022-12-09T01:53:40.673Z,4.50
2022-12-09T01:54:40.477Z,4.50
2022-12-09T01:55:40.463Z,4.40
2022-12-09T01:56:40.441Z,4.20
2022-12-09T01:57:40.653Z,4.50
2022-12-09T01:58:40.442Z,4.50
2022-12-09T01:59:40.608Z,4.20
2022-12-09T02:00:40.550Z,4.00
2022-12-09T02:01:40.608Z,4.70
2022-12-09T02:02:40.755Z,4.60
2022-12-09T02:03:40.859Z,4.70
2022-12-09T02:04:40.545Z,4.60
2022-12-09T02:05:40.322Z,4.70
2022-12-09T02:06:40.423Z,4.60
2022-12-09T02:07:40.395Z,4.90
2022-12-09T02:08:40.344Z,4.60
2022-12-09T02:09:40.413Z,4.10
2022-12-09T02:10:40.327Z,4.40
2022-12-09T02:11:40.258Z,4.10
2022-12-09T02:12:40.401Z,4.50
2022-12-09T02:13:40.234Z,4.70
2022-12-09T02:14:40.357Z,3.90
2022-12-09T02:15:40.255Z,5.00
2022-12-09T02:16:40.348Z,4.40
2022-12-09T02:17:40.245Z,3.90
2022-12-09T02:18:40.347Z,4.40
2022-12-09T02:19:40.210Z,4.60
2022-12-09T02:20:40.176Z,3.60
2022-12-09T02:21:40.149Z,4.30
2022-12-09T02:22:40.323Z,4.30
2022-12-09T02:23:40.263Z,3.70
2022-12-09T02:24:40.122Z,4.10
2022-12-09T02:25:40.128Z,4.00
2022-12-09T02:26:40.124Z,4.50
2022-12-09T02:27:40.121Z,4.20
2022-12-09T02:28:40.401Z,4.10
2022-12-09T02:29:40.324Z,3.90
2022-12-09T02:30:40.436Z,4.00
2022-12-09T02:31:40.193Z,4.20
2022-12-09T02:32:40.215Z,3.80
2022-12-09T02:33:40.066Z,4.70
2022-12-09T02:34:40.042Z,4.50
2022-12-09T02:35:40.114Z,4.20
2022-12-09T02:36:40.423Z,4.00
2022-12-09T02:37:40.017Z,4.00
2022-12-09T02:38:40.006Z,4.20
2022-12-09T02:39:40.027Z,3.50
2022-12-09T02:40:40.470Z,4.60
2022-12-09T02:41:39.973Z,4.20
2022-12-09T02:42:40.044Z,4.40
2022-12-09T02:43:43.711Z,4.40
2022-12-09T02:44:40.104Z,4.00
2022-12-09T02:45:40.317Z,4.40
2022-12-09T02:46:40.002Z,4.20
2022-12-09T02:47:40.005Z,4.30
2022-12-09T02:48:40.296Z,4.20
2022-12-09T02:49:40.174Z,4.60
2022-12-09T02:50:40.072Z,4.30
2022-12-09T02:51:39.940Z,4.70
2022-12-09T02:52:39.891Z,4.40
2022-12-09T02:53:40.188Z,4.10
2022-12-09T02:54:39.958Z,4.50
2022-12-09T02:55:39.839Z,4.50
2022-12-09T02:56:39.823Z,4.40
2022-12-09T02:57:40.060Z,4.40
2022-12-09T02:58:40.198Z,4.80
2022-12-09T02:59:40.023Z,3.90
2022-12-09T03:00:40.179Z,5.10
2022-12-09T03:01:40.259Z,5.00
2022-12-09T03:02:39.956Z,4.60
2022-12-09T03:03:40.313Z,4.30
2022-12-09T03:04:39.902Z,4.10
2022-12-09T03:05:40.052Z,4.80
2022-12-09T03:06:39.802Z,4.40
2022-12-09T03:07:40.018Z,4.30
2022-12-09T03:08:39.836Z,4.00
2022-12-09T03:09:40.052Z,5.20
2022-12-09T03:10:39.940Z,4.40
2022-12-09T03:11:39.746Z,5.40
2022-12-09T03:12:39.824Z,4.50
2022-12-09T03:13:39.828Z,4.70
2022-12-09T03:14:40.008Z,4.10
2022-12-09T03:15:39.975Z,3.80
2022-12-09T03:16:39.703Z,3.80
2022-12-09T03:17:39.711Z,4.20
2022-12-09T03:18:39.724Z,4.50
2022-12-09T03:19:39.916Z,4.10
2022-12-09T03:20:39.605Z,4.70
2022-12-09T03:21:39.589Z,4.50
2022-12-09T03:22:39.610Z,3.80
2022-12-09T03:23:39.594Z,4.10
2022-12-09T03:24:39.605Z,4.60
2022-12-09T03:25:39.738Z,4.00
2022-12-09T03:26:39.626Z,4.70
2022-12-09T03:27:39.557Z,4.50
2022-12-09T03:28:39.562Z,4.20
2022-12-09T03:29:39.530Z,4.70
2022-12-09T03:30:39.751Z,4.00
2022-12-09T03:31:39.638Z,4.20
2022-12-09T03:32:39.591Z,4.40
2022-12-09T03:33:39.564Z,4.60
2022-12-09T03:34:39.634Z,4.10
2022-12-09T03:35:39.482Z,4.20
2022-12-09T03:36:39.740Z,3.80
2022-12-09T03:37:39.478Z,3.80
2022-12-09T03:38:39.591Z,5.10
2022-12-09T03:39:39.442Z,4.70
2022-12-09T03:40:39.484Z,4.60
2022-12-09T03:41:39.774Z,4.40
2022-12-09T03:42:39.431Z,4.80
2022-12-09T03:43:39.435Z,4.10
2022-12-09T03:44:39.382Z,4.10
2022-12-09T03:45:39.452Z,4.10
2022-12-09T03:46:39.487Z,4.10
2022-12-09T03:47:39.421Z,4.60
2022-12-09T03:48:39.558Z,4.10
2022-12-09T03:49:39.639Z,4.50
2022-12-09T03:50:39.359Z,4.70
2022-12-09T03:51:39.331Z,4.10
2022-12-09T03:52:39.667Z,4.10
2022-12-09T03:53:39.641Z,3.90
2022-12-09T03:54:39.296Z,3.70
2022-12-09T03:55:39.591Z,3.70
2022-12-09T03:56:39.354Z,4.20
2022-12-09T03:57:39.266Z,3.60
2022-12-09T03:58:39.295Z,3.90
2022-12-09T03:59:39.519Z,4.20
2022-12-09T04:00:39.219Z,3.60
2022-12-09T04:01:39.274Z,4.30
2022-12-09T04:02:39.507Z,4.40
2022-12-09T04:03:39.716Z,3.70
2022-12-09T04:04:39.458Z,4.40
2022-12-09T04:05:39.174Z,4.50
2022-12-09T04:06:39.208Z,4.50
2022-12-09T04:07:39.560Z,4.80
2022-12-09T04:08:39.258Z,4.50
2022-12-09T04:09:39.650Z,4.20
2022-12-09T04:10:39.397Z,3.90
2022-12-09T04:11:39.268Z,4.20
2022-12-09T04:12:39.267Z,4.00
2022-12-09T04:13:39.424Z,4.60
2022-12-09T04:14:39.191Z,4.50
2022-12-09T04:15:39.256Z,4.50
2022-12-09T04:16:39.487Z,4.00
2022-12-09T04:17:39.377Z,5.00
2022-12-09T04:18:39.246Z,4.40
2022-12-09T04:19:39.121Z,4.70
2022-12-09T04:20:39.053Z,4.90
2022-12-09T04:21:39.215Z,4.90
2022-12-09T04:22:39.292Z,4.60
2022-12-09T04:23:42.946Z,5.30
2022-12-09T04:24:38.993Z,5.20
2022-12-09T04:25:39.233Z,5.00
2022-12-09T04:26:38.979Z,4.20
2022-12-09T04:27:38.992Z,4.90
2022-12-09T04:28:38.972Z,4.80
2022-12-09T04:29:38.983Z,4.40
2022-12-09T04:30:39.152Z,5.00
2022-12-09T04:31:39.000Z,5.00
2022-12-09T04:32:39.415Z,5.80
2022-12-09T04:33:38.920Z,4.10
2022-12-09T04:34:38.912Z,4.40
2022-12-09T04:35:39.204Z,4.60
2022-12-09T04:36:38.995Z,4.90
2022-12-09T04:37:39.017Z,4.70
2022-12-09T04:38:39.132Z,4.40
2022-12-09T04:39:38.924Z,4.20
2022-12-09T04:40:39.119Z,4.30
2022-12-09T04:41:38.994Z,5.10
2022-12-09T04:42:39.033Z,4.80
2022-12-09T04:43:38.822Z,4.80
2022-12-09T04:44:38.839Z,4.90
2022-12-09T04:45:39.092Z,4.90
2022-12-09T04:46:39.271Z,4.10
2022-12-09T04:47:39.128Z,4.30
2022-12-09T04:48:38.831Z,4.60
2022-12-09T04:49:38.982Z,4.30
2022-12-09T04:50:38.863Z,4.70
2022-12-09T04:51:40.167Z,4.60
2022-12-09T04:52:38.783Z,4.40
2022-12-09T04:53:38.858Z,4.70
2022-12-09T04:54:38.718Z,5.10
2022-12-09T04:55:38.979Z,4.80
2022-12-09T04:56:38.707Z,5.20
2022-12-09T04:57:38.689Z,4.80
2022-12-09T04:58:39.048Z,5.00
2022-12-09T04:59:38.907Z,4.80
2022-12-09T05:00:38.828Z,5.50
2022-12-09T05:01:39.169Z,4.80
2022-12-09T05:02:39.005Z,4.80
2022-12-09T05:03:38.807Z,4.70
2022-12-09T05:04:38.841Z,4.90
2022-12-09T05:05:39.406Z,5.30
2022-12-09T05:06:38.758Z,4.30
2022-12-09T05:07:38.960Z,4.70
2022-12-09T05:08:39.087Z,4.80
2022-12-09T05:09:39.005Z,4.90
2022-12-09T05:10:38.897Z,5.00
2022-12-09T05:11:38.769Z,5.30
2022-12-09T05:12:38.827Z,5.40
2022-12-09T05:13:38.630Z,4.90
2022-12-09T05:14:38.565Z,5.70
2022-12-09T05:15:39.030Z,5.00
2022-12-09T05:16:38.645Z,5.10
2022-12-09T05:17:38.657Z,4.70
2022-12-09T05:18:38.878Z,5.20
2022-12-09T05:19:38.861Z,5.10
2022-12-09T05:20:38.475Z,5.30
2022-12-09T05:21:38.495Z,4.90
2022-12-09T05:22:38.563Z,4.90
2022-12-09T05:23:38.504Z,5.10
2022-12-09T05:24:38.854Z,5.20
2022-12-09T05:25:38.961Z,5.10
2022-12-09T05:26:38.480Z,5.00
2022-12-09T05:27:38.426Z,4.70
2022-12-09T05:28:38.419Z,5.60
2022-12-09T05:29:38.490Z,5.30
2022-12-09T05:30:38.507Z,4.50
2022-12-09T05:31:38.490Z,5.60
2022-12-09T05:32:38.596Z,5.00
2022-12-09T05:33:38.698Z,5.80
2022-12-09T05:34:38.498Z,6.20
2022-12-09T05:35:49.160Z,5.20
2022-12-09T05:36:38.350Z,4.80
2022-12-09T05:37:38.481Z,5.20
2022-12-09T05:38:38.666Z,5.30
2022-12-09T05:39:38.620Z,5.30
2022-12-09T05:40:38.282Z,6.40
2022-12-09T05:41:38.409Z,5.50
2022-12-09T05:42:41.647Z,6.00
2022-12-09T05:43:38.406Z,5.60
2022-12-09T05:44:38.489Z,5.60
2022-12-09T05:45:39.094Z,6.20
2022-12-09T05:46:38.360Z,5.60
2022-12-09T05:47:38.484Z,5.40
2022-12-09T05:48:38.344Z,5.80
2022-12-09T05:49:38.352Z,5.20
2022-12-09T05:50:38.316Z,5.50
2022-12-09T05:51:38.512Z,5.80
2022-12-09T05:52:38.467Z,5.70
2022-12-09T05:53:38.490Z,5.90
2022-12-09T05:54:38.171Z,5.50
2022-12-09T05:55:38.713Z,5.30
2022-12-09T05:56:42.838Z,5.50
2022-12-09T05:57:38.193Z,6.10
2022-12-09T05:58:38.219Z,5.90
2022-12-09T05:59:38.211Z,5.90
2022-12-09T06:00:38.179Z,5.80
2022-12-09T06:01:38.147Z,5.90
2022-12-09T06:02:38.404Z,5.90
2022-12-09T06:03:38.768Z,5.90
2022-12-09T06:04:38.538Z,5.30
2022-12-09T06:05:38.251Z,5.40
2022-12-09T06:06:38.247Z,5.60
2022-12-09T06:07:38.576Z,5.40
2022-12-09T06:08:38.208Z,5.80
2022-12-09T06:09:38.185Z,5.60
2022-12-09T06:10:38.482Z,6.00
2022-12-09T06:11:38.312Z,6.40
2022-12-09T06:12:38.118Z,5.50
2022-12-09T06:13:38.297Z,5.00
2022-12-09T06:14:38.153Z,6.20
2022-12-09T06:15:38.056Z,6.10
2022-12-09T06:16:38.191Z,5.70
2022-12-09T06:17:38.109Z,5.60
2022-12-09T06:18:38.495Z,5.10
2022-12-09T06:19:38.445Z,5.10
2022-12-09T06:20:38.136Z,5.50
2022-12-09T06:21:38.156Z,6.20
2022-12-09T06:22:38.037Z,5.90
2022-12-09T06:23:38.029Z,5.70
2022-12-09T06:24:38.303Z,5.40
2022-12-09T06:25:38.190Z,6.80
2022-12-09T06:26:38.211Z,6.30
2022-12-09T06:27:37.886Z,5.60
2022-12-09T06:28:37.869Z,5.20
2022-12-09T06:29:37.948Z,5.50
2022-12-09T06:30:37.861Z,6.10
2022-12-09T06:31:38.025Z,5.30
2022-12-09T06:32:38.170Z,5.40
2022-12-09T06:33:54.086Z,6.00
2022-12-09T06:34:37.992Z,5.90
2022-12-09T06:35:38.009Z,5.90
2022-12-09T06:36:38.048Z,7.20
2022-12-09T06:37:37.986Z,5.30
2022-12-09T06:38:37.751Z,6.30
2022-12-09T06:39:38.054Z,6.20
2022-12-09T06:40:38.044Z,5.80
2022-12-09T06:41:37.987Z,5.90
2022-12-09T06:42:37.782Z,5.20
2022-12-09T06:43:37.709Z,6.60
2022-12-09T06:44:37.820Z,6.00
2022-12-09T06:45:37.783Z,5.50
2022-12-09T06:46:37.810Z,6.40
2022-12-09T06:47:38.007Z,6.40
2022-12-09T06:48:38.006Z,6.60
2022-12-09T06:49:37.813Z,5.80
2022-12-09T06:50:37.807Z,6.20
2022-12-09T06:51:37.631Z,6.30
2022-12-09T06:52:37.681Z,6.00
2022-12-09T06:53:37.893Z,6.20
2022-12-09T06:54:37.784Z,5.30
2022-12-09T06:55:37.936Z,6.50
2022-12-09T06:56:37.933Z,6.30
2022-12-09T06:57:37.655Z,6.60
2022-12-09T06:58:37.924Z,6.20
2022-12-09T06:59:37.574Z,6.40
2022-12-09T07:00:37.746Z,6.10
2022-12-09T07:01:37.868Z,6.60
2022-12-09T07:02:38.155Z,6.80
2022-12-09T07:03:37.793Z,6.30
2022-12-09T07:04:37.732Z,6.90
2022-12-09T07:05:37.711Z,5.80
2022-12-09T07:06:37.676Z,6.20
2022-12-09T07:07:37.613Z,5.80
2022-12-09T07:08:37.754Z,7.40
2022-12-09T07:09:37.800Z,6.20
2022-12-09T07:10:37.750Z,6.20
2022-12-09T07:11:37.708Z,6.20
2022-12-09T07:12:37.770Z,6.10
2022-12-09T07:13:37.445Z,6.70
2022-12-09T07:14:37.571Z,6.70
2022-12-09T07:15:37.624Z,6.50
2022-12-09T07:16:37.564Z,6.60
2022-12-09T07:17:37.692Z,5.90
2022-12-09T07:18:37.566Z,5.80
2022-12-09T07:19:38.015Z,5.30
2022-12-09T07:20:37.350Z,6.20
2022-12-09T07:21:37.736Z,5.70
2022-12-09T07:22:37.329Z,6.40
2022-12-09T07:23:37.718Z,6.10
2022-12-09T07:24:37.679Z,5.90
2022-12-09T07:25:37.286Z,4.90
2022-12-09T07:26:37.637Z,6.70
2022-12-09T07:27:37.496Z,6.40
2022-12-09T07:28:37.596Z,5.30
2022-12-09T07:29:37.320Z,6.60
2022-12-09T07:30:37.361Z,5.70
2022-12-09T07:31:37.515Z,5.50
2022-12-09T07:32:37.298Z,6.60
2022-12-09T07:33:37.492Z,6.30
2022-12-09T07:34:37.289Z,5.50
2022-12-09T07:35:37.253Z,5.60
2022-12-09T07:36:37.303Z,6.00
2022-12-09T07:37:37.462Z,7.00
2022-12-09T07:38:37.587Z,6.30
2022-12-09T07:39:37.564Z,5.80
2022-12-09T07:40:37.101Z,6.10
2022-12-09T07:41:37.429Z,6.00
2022-12-09T07:42:37.293Z,6.30
2022-12-09T07:43:37.378Z,5.90
2022-12-09T07:44:38.297Z,6.30
2022-12-09T07:45:37.277Z,5.20
2022-12-09T07:46:37.247Z,6.50
2022-12-09T07:47:37.593Z,6.20
2022-12-09T07:48:37.179Z,5.70
2022-12-09T07:49:37.453Z,5.30
2022-12-09T07:50:37.080Z,5.90
2022-12-09T07:51:37.046Z,5.00
2022-12-09T07:52:37.158Z,6.60
2022-12-09T07:53:37.317Z,5.80
2022-12-09T07:54:37.112Z,5.60
2022-12-09T07:55:37.371Z,5.60
2022-12-09T07:56:37.312Z,5.30
2022-12-09T07:57:38.663Z,6.80
2022-12-09T07:58:37.123Z,5.50
2022-12-09T07:59:37.280Z,5.70
2022-12-09T08:00:37.240Z,6.50
2022-12-09T08:01:37.169Z,6.80
2022-12-09T08:02:37.279Z,6.60
2022-12-09T08:03:37.393Z,6.20
2022-12-09T08:04:37.563Z,6.30
2022-12-09T08:05:39.351Z,5.90
2022-12-09T08:06:37.316Z,6.50
2022-12-09T08:07:43.659Z,5.90
2022-12-09T08:08:37.495Z,7.10
2022-12-09T08:09:37.138Z,6.30
2022-12-09T08:10:37.102Z,5.70
2022-12-09T08:11:37.335Z,7.30
2022-12-09T08:12:36.871Z,6.70
2022-12-09T08:13:36.798Z,6.00
2022-12-09T08:14:36.811Z,5.90
2022-12-09T08:15:37.091Z,6.60
2022-12-09T08:16:36.924Z,6.10
2022-12-09T08:17:37.333Z,6.90
2022-12-09T08:18:37.279Z,5.50
2022-12-09T08:19:37.250Z,5.70
2022-12-09T08:20:37.108Z,4.90
2022-12-09T08:21:36.910Z,6.50
2022-12-09T08:22:37.065Z,5.60
2022-12-09T08:23:37.248Z,5.90
2022-12-09T08:24:36.902Z,6.60
2022-12-09T08:25:36.816Z,6.10
2022-12-09T08:26:36.849Z,6.60
2022-12-09T08:27:36.801Z,6.00
2022-12-09T08:28:37.146Z,5.70
2022-12-09T08:29:36.809Z,5.70
2022-12-09T08:30:36.951Z,5.80
2022-12-09T08:31:40.827Z,5.80
2022-12-09T08:32:36.689Z,5.40
2022-12-09T08:33:36.897Z,5.60
2022-12-09T08:34:36.725Z,5.70
2022-12-09T08:35:36.717Z,6.00
2022-12-09T08:36:36.964Z,5.50
2022-12-09T08:37:37.014Z,5.30
2022-12-09T08:38:36.595Z,6.50
2022-12-09T08:39:36.798Z,5.50
2022-12-09T08:40:36.814Z,5.80
2022-12-09T08:41:38.147Z,5.90
2022-12-09T08:42:36.644Z,6.00
2022-12-09T08:43:36.865Z,5.70
2022-12-09T08:44:36.937Z,5.50
2022-12-09T08:45:36.577Z,5.20
2022-12-09T08:46:36.642Z,5.60
2022-12-09T08:47:36.649Z,5.60
2022-12-09T08:48:36.756Z,5.50
2022-12-09T08:49:36.627Z,5.90
2022-12-09T08:50:36.858Z,6.60
2022-12-09T08:51:36.632Z,5.30
2022-12-09T08:52:40.521Z,5.80
2022-12-09T08:53:36.437Z,6.80
2022-12-09T08:54:36.525Z,6.30
2022-12-09T08:55:36.746Z,5.60
2022-12-09T08:56:36.751Z,6.10
2022-12-09T08:57:36.646Z,6.70
2022-12-09T08:58:36.780Z,6.20
2022-12-09T08:59:41.890Z,5.90
2022-12-09T09:00:36.421Z,5.70
2022-12-09T09:01:36.595Z,6.20
2022-12-09T09:02:36.606Z,6.00
2022-12-09T09:03:36.459Z,5.70
2022-12-09T09:04:36.918Z,5.40
2022-12-09T09:05:36.556Z,6.00
2022-12-09T09:06:36.665Z,5.70
2022-12-09T09:07:36.402Z,5.50
2022-12-09T09:08:36.675Z,5.30
2022-12-09T09:09:36.348Z,6.10
2022-12-09T09:10:36.536Z,5.70
2022-12-09T09:11:36.538Z,5.70
2022-12-09T09:12:42.147Z,6.30
2022-12-09T09:13:36.219Z,5.80
2022-12-09T09:14:36.354Z,5.90
2022-12-09T09:15:36.606Z,5.90
2022-12-09T09:16:36.448Z,5.50
2022-12-09T09:17:36.638Z,6.20
2022-12-09T09:18:36.809Z,5.60
2022-12-09T09:19:36.363Z,6.20
2022-12-09T09:20:36.364Z,5.70
2022-12-09T09:21:36.850Z,6.00
2022-12-09T09:22:36.552Z,8.30
2022-12-09T09:23:36.179Z,6.10
2022-12-09T09:24:36.468Z,5.70
2022-12-09T09:25:36.347Z,6.40
2022-12-09T09:26:36.284Z,5.90
2022-12-09T09:27:36.119Z,6.80
2022-12-09T09:28:36.128Z,5.50
2022-12-09T09:29:36.364Z,5.30
2022-12-09T09:30:36.336Z,6.40
2022-12-09T09:31:36.582Z,6.10
2022-12-09T09:32:36.323Z,5.90
2022-12-09T09:33:36.439Z,6.00
2022-12-09T09:34:36.292Z,5.80
2022-12-09T09:35:36.075Z,6.10
2022-12-09T09:36:36.186Z,5.70
2022-12-09T09:37:36.301Z,6.50
2022-12-09T09:38:36.057Z,6.50
2022-12-09T09:39:36.182Z,6.70
2022-12-09T09:40:36.094Z,5.80
2022-12-09T09:41:36.344Z,6.90
2022-12-09T09:42:35.965Z,5.70
2022-12-09T09:43:36.282Z,6.00
2022-12-09T09:44:36.118Z,6.20
2022-12-09T09:45:36.065Z,5.60
2022-12-09T09:46:36.183Z,6.30
2022-12-09T09:47:38.724Z,6.50
2022-12-09T09:48:36.095Z,6.20
2022-12-09T09:49:36.407Z,5.40
2022-12-09T09:50:36.091Z,6.30
2022-12-09T09:51:36.015Z,6.40
2022-12-09T09:52:36.254Z,6.10
2022-12-09T09:53:35.824Z,5.90
2022-12-09T09:54:36.293Z,6.10
2022-12-09T09:55:36.148Z,7.30
2022-12-09T09:56:36.091Z,6.40
2022-12-09T09:57:36.042Z,5.80
2022-12-09T09:58:35.997Z,5.90
2022-12-09T09:59:35.930Z,6.40
2022-12-09T10:00:36.187Z,5.70
2022-12-09T10:01:36.008Z,6.50
2022-12-09T10:02:36.413Z,6.50
2022-12-09T10:03:36.117Z,6.00
2022-12-09T10:04:35.917Z,6.60
2022-12-09T10:05:36.035Z,5.90
2022-12-09T10:06:36.394Z,5.70
2022-12-09T10:07:36.302Z,6.50
2022-12-09T10:08:35.955Z,6.40
2022-12-09T10:09:36.140Z,6.30
2022-12-09T10:10:36.129Z,6.40
2022-12-09T10:11:36.243Z,7.10
2022-12-09T10:12:36.049Z,6.20
2022-12-09T10:13:36.416Z,6.10
2022-12-09T10:14:36.322Z,6.00
2022-12-09T10:15:35.892Z,6.10
2022-12-09T10:16:35.766Z,6.20
2022-12-09T10:17:36.170Z,6.70
2022-12-09T10:18:36.169Z,5.70
2022-12-09T10:19:36.214Z,5.40
2022-12-09T10:20:35.930Z,6.40
2022-12-09T10:21:35.561Z,6.10
2022-12-09T10:22:36.087Z,6.40
2022-12-09T10:23:36.080Z,6.20
2022-12-09T10:24:40.060Z,5.60
2022-12-09T10:25:35.814Z,6.60
2022-12-09T10:26:35.592Z,5.60
2022-12-09T10:27:35.848Z,6.00
2022-12-09T10:28:35.880Z,6.60
2022-12-09T10:29:35.625Z,6.00
2022-12-09T10:30:41.792Z,6.00
2022-12-09T10:31:35.935Z,6.10
2022-12-09T10:32:35.805Z,6.00
2022-12-09T10:33:35.602Z,7.00
2022-12-09T10:34:35.717Z,6.50
2022-12-09T10:35:35.775Z,6.10
2022-12-09T10:36:36.684Z,6.20
2022-12-09T10:37:35.476Z,5.90
2022-12-09T10:38:35.649Z,5.50
2022-12-09T10:39:35.661Z,6.00
2022-12-09T10:40:35.550Z,6.60
2022-12-09T10:41:35.619Z,6.40
2022-12-09T10:42:36.008Z,5.80
2022-12-09T10:43:35.726Z,5.80
2022-12-09T10:44:35.511Z,6.80
2022-12-09T10:46:14.989Z,5.50
2022-12-09T10:46:35.708Z,5.00
2022-12-09T10:47:35.753Z,6.00
2022-12-09T10:48:36.472Z,6.50
2022-12-09T10:49:35.909Z,6.00
2022-12-09T10:50:35.684Z,5.70
2022-12-09T10:51:35.607Z,5.40
2022-12-09T10:52:35.639Z,6.30
2022-12-09T10:53:35.307Z,6.10
2022-12-09T10:54:35.757Z,6.20
2022-12-09T10:55:35.669Z,6.50
2022-12-09T10:56:35.716Z,5.70
2022-12-09T10:57:35.444Z,6.60
2022-12-09T10:58:35.315Z,6.20
2022-12-09T10:59:35.381Z,6.00
2022-12-09T11:00:35.851Z,5.80
2022-12-09T11:01:35.473Z,6.40
2022-12-09T11:02:35.759Z,5.70
2022-12-09T11:03:35.358Z,5.80
2022-12-09T11:04:35.610Z,6.30
2022-12-09T11:05:35.795Z,5.50
2022-12-09T11:06:35.398Z,6.10
2022-12-09T11:07:35.543Z,7.10
2022-12-09T11:08:35.383Z,6.60
2022-12-09T11:09:35.698Z,5.70
2022-12-09T11:10:35.356Z,6.10
2022-12-09T11:11:35.528Z,6.80
2022-12-09T11:12:40.504Z,7.00
2022-12-09T11:13:35.123Z,5.60
2022-12-09T11:14:35.141Z,7.10
2022-12-09T11:15:35.334Z,6.80
2022-12-09T11:16:35.268Z,6.70
2022-12-09T11:17:36.061Z,5.90
2022-12-09T11:18:35.587Z,6.10
2022-12-09T11:19:35.316Z,7.20
2022-12-09T11:20:35.525Z,6.30
2022-12-09T11:21:35.197Z,6.10
2022-12-09T11:22:35.442Z,6.10
2022-12-09T11:23:35.627Z,6.50
2022-12-09T11:24:35.372Z,6.90
2022-12-09T11:25:36.124Z,7.70
2022-12-09T11:26:35.065Z,5.90
2022-12-09T11:27:35.410Z,6.20
2022-12-09T11:28:35.183Z,6.70
2022-12-09T11:29:35.020Z,6.70
2022-12-09T11:30:35.010Z,6.70
2022-12-09T11:31:35.326Z,6.80
2022-12-09T11:32:34.922Z,6.50
2022-12-09T11:33:34.932Z,6.70
2022-12-09T11:34:35.171Z,7.30
2022-12-09T11:35:35.692Z,7.40
2022-12-09T11:36:37.088Z,6.60
2022-12-09T11:37:34.814Z,7.00
2022-12-09T11:38:34.818Z,7.10
2022-12-09T11:39:34.843Z,6.90
2022-12-09T11:40:34.774Z,7.00
2022-12-09T11:41:34.793Z,7.70
2022-12-09T11:42:34.749Z,6.20
2022-12-09T11:43:34.748Z,6.60
2022-12-09T11:44:34.769Z,7.20
2022-12-09T11:45:34.754Z,6.30
2022-12-09T11:46:34.795Z,6.60
2022-12-09T11:47:57.177Z,7.80
2022-12-09T11:48:40.066Z,7.00
2022-12-09T11:49:34.693Z,6.90
2022-12-09T11:50:34.777Z,7.00
2022-12-09T11:51:34.667Z,7.10
2022-12-09T11:52:34.673Z,6.60
2022-12-09T11:53:34.673Z,5.90
2022-12-09T11:54:34.631Z,6.80
2022-12-09T11:55:34.630Z,6.50
2022-12-09T11:56:34.624Z,6.70
2022-12-09T11:57:34.632Z,6.40
2022-12-09T11:58:34.605Z,6.20
2022-12-09T11:59:37.962Z,6.60
2022-12-09T12:00:34.582Z,6.50
2022-12-09T12:01:34.648Z,7.60
2022-12-09T12:02:34.650Z,6.70
2022-12-09T12:03:34.583Z,7.20
2022-12-09T12:04:34.558Z,6.20
2022-12-09T12:05:34.543Z,6.60
2022-12-09T12:06:34.543Z,6.20
2022-12-09T12:07:34.511Z,6.70
2022-12-09T12:08:34.662Z,7.00
2022-12-09T12:09:34.524Z,6.20
2022-12-09T12:10:34.488Z,6.70
2022-12-09T12:11:34.478Z,7.00
2022-12-09T12:12:34.461Z,6.90
2022-12-09T12:13:34.467Z,6.70
2022-12-09T12:14:34.456Z,7.20
2022-12-09T12:15:34.467Z,6.40
2022-12-09T12:16:39.251Z,7.50
2022-12-09T12:17:34.502Z,6.50
2022-12-09T12:18:34.471Z,6.70
2022-12-09T12:19:34.428Z,7.30
2022-12-09T12:20:34.393Z,7.50
2022-12-09T12:21:34.376Z,7.20
2022-12-09T12:22:34.359Z,7.10
2022-12-09T12:23:34.354Z,7.30
2022-12-09T12:24:34.387Z,7.30
2022-12-09T12:25:34.341Z,6.50
2022-12-09T12:26:34.334Z,7.00
2022-12-09T12:27:34.329Z,7.60
2022-12-09T12:28:34.331Z,7.90
2022-12-09T12:29:34.339Z,7.00
2022-12-09T12:30:34.295Z,7.20
2022-12-09T12:31:34.340Z,7.30
2022-12-09T12:32:34.305Z,6.80
2022-12-09T12:34:07.654Z,7.00
2022-12-09T12:34:39.163Z,6.20
2022-12-09T12:35:34.981Z,6.10
2022-12-09T12:36:34.242Z,6.10
2022-12-09T12:37:34.237Z,7.10
2022-12-09T12:38:34.225Z,7.50
2022-12-09T12:39:34.234Z,7.00
2022-12-09T12:40:34.188Z,7.40
2022-12-09T12:41:34.293Z,6.40
2022-12-09T12:42:36.130Z,7.70
2022-12-09T12:43:34.168Z,7.40
2022-12-09T12:44:34.165Z,6.80
2022-12-09T12:45:34.201Z,7.40
2022-12-09T12:46:34.204Z,7.40
2022-12-09T12:47:34.142Z,6.80
2022-12-09T12:48:34.173Z,7.30
2022-12-09T12:49:34.159Z,6.50
2022-12-09T12:50:34.124Z,7.10
2022-12-09T12:51:34.099Z,6.80
2022-12-09T12:53:34.108Z,6.70
2022-12-09T12:54:34.086Z,6.60
2022-12-09T12:55:34.080Z,8.20
2022-12-09T12:56:34.045Z,8.60
2022-12-09T12:57:34.031Z,6.70
2022-12-09T12:58:34.019Z,6.70
2022-12-09T12:59:34.231Z,7.00
2022-12-09T13:00:34.017Z,6.10
2022-12-09T13:01:34.054Z,6.70
2022-12-09T13:02:34.026Z,6.60
2022-12-09T13:03:33.972Z,6.80
2022-12-09T13:04:33.982Z,6.30
2022-12-09T13:05:33.978Z,6.50
2022-12-09T13:06:33.955Z,7.30
2022-12-09T13:07:34.822Z,6.60
2022-12-09T13:08:34.014Z,6.00
2022-12-09T13:09:33.946Z,6.40
2022-12-09T13:10:33.917Z,6.70
2022-12-09T13:11:33.933Z,6.60
2022-12-09T13:12:33.894Z,7.40
2022-12-09T13:13:33.925Z,6.20
2022-12-09T13:14:33.882Z,6.00
2022-12-09T13:15:34.003Z,6.70
2022-12-09T13:16:33.909Z,7.20
2022-12-09T13:17:33.839Z,6.20
2022-12-09T13:18:33.865Z,6.30
2022-12-09T13:19:33.833Z,6.60